createdAt,value
2019-03-10T00:03:38.267Z,4.23
2019-03-10T00:08:44.075Z,4.30
2019-03-10T00:13:50.909Z,6.77
2019-03-10T00:18:57.244Z,6.63
2019-03-10T00:24:02.921Z,4.80
2019-03-10T00:29:08.693Z,5.97
2019-03-10T00:34:16.685Z,3.83
2019-03-10T00:39:41.611Z,1.60
2019-03-10T00:45:23.634Z,1.40
2019-03-10T00:50:41.592Z,1.60
2019-03-10T00:55:47.250Z,3.80
2019-03-10T01:00:53.121Z,2.67
2019-03-10T01:05:59.094Z,1.37
2019-03-10T01:11:05.044Z,2.43
2019-03-10T01:16:11.649Z,3.07
2019-03-10T01:21:18.420Z,4.93
2019-03-10T01:26:24.147Z,3.00
2019-03-10T01:31:57.328Z,3.10
2019-03-10T01:37:03.331Z,3.33
2019-03-10T01:42:09.108Z,4.40
2019-03-10T01:47:14.843Z,4.67
2019-03-10T01:52:20.550Z,5.17
2019-03-10T01:57:26.297Z,3.10
2019-03-10T02:02:32.052Z,4.90
2019-03-10T02:07:37.740Z,6.23
2019-03-10T02:12:43.469Z,7.17
2019-03-10T02:17:49.098Z,11.37
2019-03-10T02:22:54.883Z,5.33
2019-03-10T02:28:00.550Z,8.40
2019-03-10T02:33:06.321Z,3.97
2019-03-10T02:38:12.143Z,5.87
2019-03-10T02:43:17.858Z,5.43
2019-03-10T02:48:23.521Z,6.77
2019-03-10T02:53:29.306Z,8.03
2019-03-10T02:58:34.986Z,5.23
2019-03-10T03:03:40.782Z,6.87
2019-03-10T03:08:46.787Z,7.23
2019-03-10T03:13:52.501Z,8.97
2019-03-10T03:18:58.277Z,9.33
2019-03-10T03:24:04.094Z,6.77
2019-03-10T03:29:09.819Z,6.13
2019-03-10T03:34:15.691Z,8.20
2019-03-10T03:39:27.547Z,4.53
2019-03-10T03:44:33.414Z,3.87
2019-03-10T03:49:39.085Z,6.20
2019-03-10T03:54:44.853Z,4.43
2019-03-10T03:59:50.560Z,6.10
2019-03-10T04:04:56.327Z,7.83
2019-03-10T04:10:02.002Z,3.60
2019-03-10T04:15:07.916Z,8.73
2019-03-10T04:20:13.588Z,6.97
2019-03-10T04:25:19.254Z,7.67
2019-03-10T04:30:24.937Z,6.53
2019-03-10T04:35:30.586Z,6.77
2019-03-10T04:40:36.263Z,6.83
2019-03-10T04:45:41.943Z,4.20
2019-03-10T04:50:47.955Z,10.27
2019-03-10T04:55:58.024Z,5.37
2019-03-10T05:01:03.755Z,4.37
2019-03-10T05:06:09.492Z,3.37
2019-03-10T05:11:15.273Z,5.90
2019-03-10T05:16:20.941Z,7.23
2019-03-10T05:21:27.711Z,6.47
2019-03-10T05:26:33.311Z,6.77
2019-03-10T05:31:39.331Z,8.07
2019-03-10T05:36:45.013Z,6.73
2019-03-10T05:41:50.708Z,7.70
2019-03-10T05:46:56.365Z,8.03
2019-03-10T05:52:02.237Z,4.87
2019-03-10T05:57:07.899Z,8.90
2019-03-10T06:02:13.572Z,8.93
2019-03-10T06:07:19.309Z,6.90
2019-03-10T06:12:24.982Z,5.23
2019-03-10T06:17:30.677Z,9.93
2019-03-10T06:22:36.462Z,7.73
2019-03-10T06:27:42.119Z,4.80
2019-03-10T06:32:47.827Z,6.77
2019-03-10T06:37:53.524Z,6.67
2019-03-10T06:42:59.238Z,9.27
2019-03-10T06:48:04.995Z,9.77
2019-03-10T06:53:11.042Z,6.57
2019-03-10T06:58:16.782Z,6.43
2019-03-10T07:03:22.492Z,3.93
2019-03-10T07:08:28.156Z,7.83
2019-03-10T07:13:33.802Z,7.70
2019-03-10T07:18:40.937Z,6.57
2019-03-10T07:23:46.705Z,5.77
2019-03-10T07:28:56.814Z,8.90
2019-03-10T07:34:20.340Z,6.47
2019-03-10T07:39:33.744Z,5.03
2019-03-10T07:44:40.872Z,5.00
2019-03-10T07:50:04.334Z,10.33
2019-03-10T07:55:11.837Z,8.17
2019-03-10T08:00:22.191Z,8.93
2019-03-10T08:05:29.518Z,5.83
2019-03-10T08:10:39.804Z,5.60
2019-03-10T08:16:05.392Z,4.87
2019-03-10T08:21:31.233Z,8.37
2019-03-10T08:26:47.690Z,12.07
2019-03-10T08:32:01.110Z,6.77
2019-03-10T08:37:24.924Z,9.27
2019-03-10T08:42:49.732Z,5.20
2019-03-10T08:48:06.336Z,6.70
2019-03-10T08:53:22.983Z,7.30
2019-03-10T08:58:30.331Z,7.13
2019-03-10T09:03:56.113Z,7.07
2019-03-10T09:09:03.440Z,6.60
2019-03-10T09:14:21.464Z,7.17
2019-03-10T09:19:28.783Z,6.10
2019-03-10T09:24:44.923Z,4.17
2019-03-10T09:30:10.551Z,8.17
2019-03-10T09:35:23.878Z,6.60
2019-03-10T09:40:40.447Z,6.10
2019-03-10T09:45:59.862Z,6.07
2019-03-10T09:51:13.591Z,6.07
2019-03-10T09:56:21.009Z,7.50
2019-03-10T10:01:28.335Z,5.20
2019-03-10T10:06:38.542Z,6.17
2019-03-10T10:11:45.877Z,4.00
2019-03-10T10:16:53.282Z,9.30
2019-03-10T10:22:06.805Z,5.27
2019-03-10T10:27:17.039Z,5.87
2019-03-10T10:32:39.774Z,6.23
2019-03-10T10:38:01.429Z,6.27
2019-03-10T10:43:14.632Z,6.10
2019-03-10T10:48:34.154Z,6.73
2019-03-10T10:53:41.496Z,4.97
2019-03-10T10:59:04.145Z,5.93
2019-03-10T11:04:29.690Z,5.73
2019-03-10T11:09:52.268Z,6.40
2019-03-10T11:15:14.879Z,7.63
2019-03-10T11:20:25.289Z,6.70
2019-03-10T11:25:33.736Z,9.40
2019-03-10T11:30:46.976Z,7.43
2019-03-10T11:36:09.439Z,7.13
2019-03-10T11:41:34.006Z,4.53
2019-03-10T11:46:50.017Z,10.43
2019-03-10T11:52:03.124Z,8.83
2019-03-10T11:57:13.794Z,7.17
2019-03-10T12:02:23.803Z,4.07
2019-03-10T12:07:33.902Z,8.67
2019-03-10T12:12:39.620Z,7.50
2019-03-10T12:17:45.353Z,5.40
2019-03-10T12:22:51.837Z,5.23
2019-03-10T12:27:57.599Z,4.90
2019-03-10T12:33:04.345Z,5.60
2019-03-10T12:38:10.100Z,5.30
2019-03-10T12:43:15.894Z,6.33
2019-03-10T12:48:21.835Z,4.43
2019-03-10T12:53:27.769Z,6.53
2019-03-10T12:58:33.636Z,5.47
2019-03-10T13:03:39.484Z,5.40
2019-03-10T13:08:45.206Z,4.50
2019-03-10T13:13:50.954Z,5.13
2019-03-10T13:18:56.994Z,4.03
2019-03-10T13:24:03.035Z,3.37
2019-03-10T13:29:08.860Z,6.43
2019-03-10T13:34:14.567Z,5.67
2019-03-10T13:39:20.439Z,4.53
2019-03-10T13:44:26.309Z,6.17
2019-03-10T13:49:32.052Z,5.20
2019-03-10T13:54:37.825Z,6.80
2019-03-10T13:59:43.665Z,4.53
2019-03-10T14:04:49.374Z,4.10
2019-03-10T14:09:55.158Z,3.17
2019-03-10T14:15:00.905Z,4.93
2019-03-10T14:20:09.519Z,6.67
2019-03-10T14:25:16.535Z,7.27
2019-03-10T14:30:22.287Z,6.17
2019-03-10T14:35:28.240Z,5.57
2019-03-10T14:40:34.351Z,5.00
2019-03-10T14:45:40.118Z,3.63
2019-03-10T14:50:46.106Z,7.67
2019-03-10T14:55:52.066Z,5.57
2019-03-10T15:00:57.826Z,5.23
2019-03-10T15:06:03.635Z,4.60
2019-03-10T15:11:09.417Z,3.47
2019-03-10T15:16:15.068Z,4.87
2019-03-10T15:21:20.832Z,3.17
2019-03-10T15:26:26.614Z,4.23
2019-03-10T15:31:32.394Z,5.30
2019-03-10T15:36:38.072Z,3.77
2019-03-10T15:41:43.738Z,4.87
2019-03-10T15:46:49.790Z,5.90
2019-03-10T15:51:55.456Z,6.30
2019-03-10T15:57:01.226Z,8.67
2019-03-10T16:02:09.448Z,8.13
2019-03-10T16:07:15.295Z,4.83
2019-03-10T16:12:21.042Z,2.07
2019-03-10T16:17:26.752Z,5.60
2019-03-10T16:22:34.785Z,3.60
2019-03-10T16:27:40.772Z,7.27
2019-03-10T16:32:46.580Z,7.60
2019-03-10T16:37:52.340Z,5.47
2019-03-10T16:42:58.027Z,6.00
2019-03-10T16:48:03.740Z,5.40
2019-03-10T16:53:09.568Z,5.40
2019-03-10T16:58:15.498Z,4.37
2019-03-10T17:03:21.441Z,5.40
2019-03-10T17:08:27.136Z,6.90
2019-03-10T17:13:32.833Z,5.77
2019-03-10T17:18:38.603Z,4.67
2019-03-10T17:23:44.271Z,6.83
2019-03-10T17:28:49.973Z,5.90
2019-03-10T17:33:55.779Z,4.97
2019-03-10T17:39:01.568Z,5.03
2019-03-10T17:44:09.838Z,5.27
2019-03-10T17:49:15.600Z,7.33
2019-03-10T17:54:21.298Z,7.27
2019-03-10T17:59:27.073Z,9.33
2019-03-10T18:04:32.735Z,3.97
2019-03-10T18:09:38.493Z,6.37
2019-03-10T18:14:44.207Z,7.07
2019-03-10T18:19:50.188Z,6.60
2019-03-10T18:24:55.999Z,5.57
2019-03-10T18:30:02.295Z,7.53
2019-03-10T18:35:09.199Z,7.53
2019-03-10T18:40:22.512Z,5.10
2019-03-10T18:45:28.392Z,6.17
2019-03-10T18:50:34.053Z,6.13
2019-03-10T18:55:39.749Z,6.83
2019-03-10T19:00:45.599Z,9.77
2019-03-10T19:05:51.371Z,11.33
2019-03-10T19:10:57.159Z,12.73
2019-03-10T19:16:02.905Z,13.03
2019-03-10T19:21:08.670Z,8.77
2019-03-10T19:26:14.487Z,10.60
2019-03-10T19:31:20.271Z,8.33
2019-03-10T19:36:26.098Z,6.93
2019-03-10T19:41:31.984Z,5.23
2019-03-10T19:46:37.819Z,6.57
2019-03-10T19:51:43.689Z,6.57
2019-03-10T19:56:49.538Z,6.60
2019-03-10T20:01:55.513Z,9.53
2019-03-10T20:07:01.307Z,8.40
2019-03-10T20:12:07.216Z,9.97
2019-03-10T20:17:13.068Z,11.07
2019-03-10T20:22:18.784Z,12.30
2019-03-10T20:27:24.540Z,9.17
2019-03-10T20:32:30.310Z,12.83
2019-03-10T20:37:36.237Z,10.47
2019-03-10T20:42:42.136Z,9.43
2019-03-10T20:47:48.818Z,8.37
2019-03-10T20:52:54.681Z,12.33
2019-03-10T20:58:00.619Z,11.53
2019-03-10T21:03:06.783Z,16.50
2019-03-10T21:08:14.610Z,18.33
2019-03-10T21:13:20.785Z,14.60
2019-03-10T21:18:26.586Z,11.77
2019-03-10T21:23:32.415Z,14.83
2019-03-10T21:28:38.571Z,9.40
2019-03-10T21:33:44.552Z,8.30
2019-03-10T21:38:50.694Z,10.20
2019-03-10T21:43:56.471Z,8.33
2019-03-10T21:49:02.564Z,12.27
2019-03-10T21:54:08.397Z,7.17
2019-03-10T21:59:14.226Z,8.57
2019-03-10T22:04:21.046Z,6.90
2019-03-10T22:09:26.797Z,8.43
2019-03-10T22:14:32.563Z,11.27
2019-03-10T22:19:39.388Z,9.43
2019-03-10T22:24:45.066Z,8.73
2019-03-10T22:29:50.746Z,12.40
2019-03-10T22:34:56.553Z,7.73
2019-03-10T22:40:02.278Z,9.90
2019-03-10T22:45:11.154Z,6.83
2019-03-10T22:50:17.344Z,8.07
2019-03-10T22:55:23.119Z,8.23
2019-03-10T23:00:39.585Z,10.43
2019-03-10T23:05:46.964Z,14.53
2019-03-10T23:10:53.825Z,11.20
2019-03-10T23:15:59.604Z,6.33
2019-03-10T23:21:05.349Z,6.77
2019-03-10T23:26:11.209Z,7.43
2019-03-10T23:31:16.979Z,5.60
2019-03-10T23:36:22.693Z,8.70
2019-03-10T23:41:29.513Z,3.53
2019-03-10T23:46:35.361Z,5.13
2019-03-10T23:51:41.123Z,3.83
2019-03-10T23:56:46.894Z,8.93
